sensor_id;sensor_type;location;lat;lon;timestamp;P1;durP1;ratioP1;P2;durP2;ratioP2
80229;SDS011;69540;42.136;24.742;2024-03-22T00:02:06;8.68;;;7.68;;
80229;SDS011;69540;42.136;24.742;2024-03-22T00:04:32;7.57;;;6.78;;
80229;SDS011;69540;42.136;24.742;2024-03-22T00:06:58;8.95;;;6.80;;
80229;SDS011;69540;42.136;24.742;2024-03-22T00:09:23;8.18;;;7.38;;
80229;SDS011;69540;42.136;24.742;2024-03-22T00:11:49;7.05;;;6.35;;
80229;SDS011;69540;42.136;24.742;2024-03-22T00:14:15;6.97;;;5.95;;
80229;SDS011;69540;42.136;24.742;2024-03-22T00:16:40;7.45;;;6.22;;
80229;SDS011;69540;42.136;24.742;2024-03-22T00:19:06;10.88;;;6.57;;
80229;SDS011;69540;42.136;24.742;2024-03-22T00:21:32;6.68;;;5.97;;
80229;SDS011;69540;42.136;24.742;2024-03-22T00:23:57;6.80;;;6.05;;
80229;SDS011;69540;42.136;24.742;2024-03-22T00:26:23;6.70;;;6.10;;
80229;SDS011;69540;42.136;24.742;2024-03-22T00:28:49;7.82;;;5.78;;
80229;SDS011;69540;42.136;24.742;2024-03-22T00:31:15;7.57;;;6.15;;
80229;SDS011;69540;42.136;24.742;2024-03-22T00:33:41;9.10;;;6.72;;
80229;SDS011;69540;42.136;24.742;2024-03-22T00:36:07;7.25;;;5.90;;
80229;SDS011;69540;42.136;24.742;2024-03-22T00:38:33;6.45;;;5.72;;
80229;SDS011;69540;42.136;24.742;2024-03-22T00:40:59;7.47;;;6.22;;
80229;SDS011;69540;42.136;24.742;2024-03-22T00:43:24;7.60;;;6.35;;
80229;SDS011;69540;42.136;24.742;2024-03-22T00:45:50;7.88;;;6.78;;
80229;SDS011;69540;42.136;24.742;2024-03-22T00:48:16;7.57;;;6.78;;
80229;SDS011;69540;42.136;24.742;2024-03-22T00:50:41;8.32;;;7.45;;
80229;SDS011;69540;42.136;24.742;2024-03-22T00:53:07;10.05;;;7.10;;
80229;SDS011;69540;42.136;24.742;2024-03-22T00:55:35;8.63;;;7.45;;
80229;SDS011;69540;42.136;24.742;2024-03-22T00:58:00;8.80;;;7.68;;
80229;SDS011;69540;42.136;24.742;2024-03-22T01:00:26;10.65;;;7.70;;
80229;SDS011;69540;42.136;24.742;2024-03-22T01:02:52;9.50;;;8.15;;
80229;SDS011;69540;42.136;24.742;2024-03-22T01:05:18;10.68;;;8.95;;
80229;SDS011;69540;42.136;24.742;2024-03-22T01:07:44;9.20;;;7.45;;
80229;SDS011;69540;42.136;24.742;2024-03-22T01:10:10;9.07;;;7.90;;
80229;SDS011;69540;42.136;24.742;2024-03-22T01:12:36;9.25;;;7.90;;
80229;SDS011;69540;42.136;24.742;2024-03-22T01:15:03;8.60;;;7.50;;
80229;SDS011;69540;42.136;24.742;2024-03-22T01:17:30;10.23;;;7.90;;
80229;SDS011;69540;42.136;24.742;2024-03-22T01:19:56;9.88;;;8.38;;
80229;SDS011;69540;42.136;24.742;2024-03-22T01:22:21;8.70;;;7.72;;
80229;SDS011;69540;42.136;24.742;2024-03-22T01:24:48;11.25;;;8.50;;
80229;SDS011;69540;42.136;24.742;2024-03-22T01:27:14;9.20;;;8.07;;
80229;SDS011;69540;42.136;24.742;2024-03-22T01:29:39;9.57;;;8.27;;
80229;SDS011;69540;42.136;24.742;2024-03-22T01:32:05;8.73;;;7.82;;
80229;SDS011;69540;42.136;24.742;2024-03-22T01:34:31;9.38;;;7.95;;
80229;SDS011;69540;42.136;24.742;2024-03-22T01:36:58;8.77;;;7.80;;
80229;SDS011;69540;42.136;24.742;2024-03-22T01:39:24;11.70;;;8.13;;
80229;SDS011;69540;42.136;24.742;2024-03-22T01:41:50;9.20;;;8.15;;
80229;SDS011;69540;42.136;24.742;2024-03-22T01:44:16;11.43;;;8.88;;
80229;SDS011;69540;42.136;24.742;2024-03-22T01:46:43;10.55;;;8.82;;
80229;SDS011;69540;42.136;24.742;2024-03-22T01:49:11;9.25;;;8.35;;
80229;SDS011;69540;42.136;24.742;2024-03-22T01:51:41;9.65;;;8.65;;
80229;SDS011;69540;42.136;24.742;2024-03-22T01:54:11;12.23;;;8.93;;
80229;SDS011;69540;42.136;24.742;2024-03-22T01:56:37;9.75;;;8.57;;
80229;SDS011;69540;42.136;24.742;2024-03-22T01:59:04;9.25;;;8.23;;
80229;SDS011;69540;42.136;24.742;2024-03-22T02:01:30;9.93;;;8.93;;
80229;SDS011;69540;42.136;24.742;2024-03-22T02:03:57;9.77;;;8.77;;
80229;SDS011;69540;42.136;24.742;2024-03-22T02:06:22;9.77;;;8.80;;
80229;SDS011;69540;42.136;24.742;2024-03-22T02:08:48;10.13;;;8.73;;
80229;SDS011;69540;42.136;24.742;2024-03-22T02:11:14;10.48;;;9.38;;
80229;SDS011;69540;42.136;24.742;2024-03-22T02:13:39;9.82;;;8.93;;
80229;SDS011;69540;42.136;24.742;2024-03-22T02:16:05;10.23;;;9.23;;
80229;SDS011;69540;42.136;24.742;2024-03-22T02:18:31;11.20;;;10.10;;
80229;SDS011;69540;42.136;24.742;2024-03-22T02:20:57;11.77;;;10.57;;
80229;SDS011;69540;42.136;24.742;2024-03-22T02:23:33;11.52;;;10.32;;
80229;SDS011;69540;42.136;24.742;2024-03-22T02:26:05;11.10;;;10.00;;
80229;SDS011;69540;42.136;24.742;2024-03-22T02:28:32;12.00;;;10.82;;
80229;SDS011;69540;42.136;24.742;2024-03-22T02:30:59;11.52;;;10.43;;
80229;SDS011;69540;42.136;24.742;2024-03-22T02:33:25;11.10;;;10.00;;
80229;SDS011;69540;42.136;24.742;2024-03-22T02:35:51;11.88;;;10.63;;
80229;SDS011;69540;42.136;24.742;2024-03-22T02:38:17;13.13;;;11.05;;
80229;SDS011;69540;42.136;24.742;2024-03-22T02:40:44;11.93;;;10.55;;
80229;SDS011;69540;42.136;24.742;2024-03-22T02:43:11;10.57;;;9.00;;
80229;SDS011;69540;42.136;24.742;2024-03-22T02:45:37;9.95;;;8.93;;
80229;SDS011;69540;42.136;24.742;2024-03-22T02:48:03;10.70;;;9.40;;
80229;SDS011;69540;42.136;24.742;2024-03-22T02:50:33;9.93;;;8.55;;
80229;SDS011;69540;42.136;24.742;2024-03-22T02:52:59;10.00;;;9.00;;
80229;SDS011;69540;42.136;24.742;2024-03-22T02:55:24;10.02;;;8.98;;
80229;SDS011;69540;42.136;24.742;2024-03-22T02:57:50;9.43;;;8.05;;
80229;SDS011;69540;42.136;24.742;2024-03-22T03:00:16;10.20;;;8.88;;
80229;SDS011;69540;42.136;24.742;2024-03-22T03:02:43;12.00;;;9.07;;
80229;SDS011;69540;42.136;24.742;2024-03-22T03:05:09;11.02;;;8.95;;
80229;SDS011;69540;42.136;24.742;2024-03-22T03:07:35;9.60;;;8.68;;
80229;SDS011;69540;42.136;24.742;2024-03-22T03:10:01;12.10;;;9.18;;
80229;SDS011;69540;42.136;24.742;2024-03-22T03:12:26;10.90;;;9.07;;
80229;SDS011;69540;42.136;24.742;2024-03-22T03:14:52;12.98;;;10.02;;
80229;SDS011;69540;42.136;24.742;2024-03-22T03:17:17;14.40;;;9.73;;
80229;SDS011;69540;42.136;24.742;2024-03-22T03:19:44;12.55;;;9.93;;
80229;SDS011;69540;42.136;24.742;2024-03-22T03:22:09;14.38;;;9.90;;
80229;SDS011;69540;42.136;24.742;2024-03-22T03:24:35;16.85;;;10.35;;
80229;SDS011;69540;42.136;24.742;2024-03-22T03:27:01;13.90;;;10.40;;
80229;SDS011;69540;42.136;24.742;2024-03-22T03:29:28;15.40;;;11.57;;
80229;SDS011;69540;42.136;24.742;2024-03-22T03:31:53;15.48;;;12.48;;
80229;SDS011;69540;42.136;24.742;2024-03-22T03:34:19;17.48;;;11.85;;
80229;SDS011;69540;42.136;24.742;2024-03-22T03:36:45;16.63;;;12.40;;
80229;SDS011;69540;42.136;24.742;2024-03-22T03:39:12;15.43;;;12.43;;
80229;SDS011;69540;42.136;24.742;2024-03-22T03:41:38;15.75;;;12.32;;
80229;SDS011;69540;42.136;24.742;2024-03-22T03:44:04;16.40;;;12.13;;
80229;SDS011;69540;42.136;24.742;2024-03-22T03:46:30;14.55;;;12.13;;
80229;SDS011;69540;42.136;24.742;2024-03-22T03:48:56;14.63;;;12.13;;
80229;SDS011;69540;42.136;24.742;2024-03-22T03:51:22;16.13;;;12.30;;
80229;SDS011;69540;42.136;24.742;2024-03-22T03:53:47;17.52;;;12.00;;
80229;SDS011;69540;42.136;24.742;2024-03-22T03:56:13;15.90;;;11.82;;
80229;SDS011;69540;42.136;24.742;2024-03-22T03:58:39;13.70;;;11.23;;
80229;SDS011;69540;42.136;24.742;2024-03-22T04:01:08;14.57;;;10.80;;
80229;SDS011;69540;42.136;24.742;2024-03-22T04:03:34;13.05;;;10.65;;
80229;SDS011;69540;42.136;24.742;2024-03-22T04:06:00;12.95;;;10.40;;
80229;SDS011;69540;42.136;24.742;2024-03-22T04:08:26;13.40;;;10.80;;
80229;SDS011;69540;42.136;24.742;2024-03-22T04:10:53;11.40;;;9.75;;
80229;SDS011;69540;42.136;24.742;2024-03-22T04:13:21;12.43;;;10.38;;
80229;SDS011;69540;42.136;24.742;2024-03-22T04:15:47;12.23;;;10.02;;
80229;SDS011;69540;42.136;24.742;2024-03-22T04:18:13;11.02;;;9.75;;
80229;SDS011;69540;42.136;24.742;2024-03-22T04:20:39;14.32;;;10.35;;
80229;SDS011;69540;42.136;24.742;2024-03-22T04:23:04;12.60;;;10.45;;
80229;SDS011;69540;42.136;24.742;2024-03-22T04:25:30;12.13;;;9.10;;
80229;SDS011;69540;42.136;24.742;2024-03-22T04:27:56;12.13;;;9.45;;
80229;SDS011;69540;42.136;24.742;2024-03-22T04:30:21;11.73;;;10.07;;
80229;SDS011;69540;42.136;24.742;2024-03-22T04:32:47;13.15;;;9.90;;
80229;SDS011;69540;42.136;24.742;2024-03-22T04:35:13;11.25;;;9.45;;
80229;SDS011;69540;42.136;24.742;2024-03-22T04:37:39;10.65;;;9.40;;
80229;SDS011;69540;42.136;24.742;2024-03-22T04:40:04;11.05;;;9.48;;
80229;SDS011;69540;42.136;24.742;2024-03-22T04:42:31;10.82;;;9.25;;
80229;SDS011;69540;42.136;24.742;2024-03-22T04:44:57;11.65;;;9.20;;
80229;SDS011;69540;42.136;24.742;2024-03-22T04:47:23;12.68;;;10.02;;
80229;SDS011;69540;42.136;24.742;2024-03-22T04:49:49;11.68;;;9.75;;
80229;SDS011;69540;42.136;24.742;2024-03-22T04:52:14;10.82;;;9.68;;
80229;SDS011;69540;42.136;24.742;2024-03-22T04:54:40;13.18;;;9.98;;
80229;SDS011;69540;42.136;24.742;2024-03-22T04:57:06;13.48;;;10.10;;
80229;SDS011;69540;42.136;24.742;2024-03-22T04:59:31;14.02;;;10.27;;
80229;SDS011;69540;42.136;24.742;2024-03-22T05:01:57;11.60;;;10.25;;
80229;SDS011;69540;42.136;24.742;2024-03-22T05:04:23;11.75;;;9.82;;
80229;SDS011;69540;42.136;24.742;2024-03-22T05:06:49;11.95;;;10.10;;
80229;SDS011;69540;42.136;24.742;2024-03-22T05:09:14;13.68;;;10.35;;
80229;SDS011;69540;42.136;24.742;2024-03-22T05:11:40;13.50;;;10.70;;
80229;SDS011;69540;42.136;24.742;2024-03-22T05:14:06;13.02;;;10.30;;
80229;SDS011;69540;42.136;24.742;2024-03-22T05:16:32;17.38;;;10.77;;
80229;SDS011;69540;42.136;24.742;2024-03-22T05:18:57;13.63;;;11.18;;
80229;SDS011;69540;42.136;24.742;2024-03-22T05:21:23;13.60;;;10.52;;
80229;SDS011;69540;42.136;24.742;2024-03-22T05:23:49;12.60;;;10.90;;
80229;SDS011;69540;42.136;24.742;2024-03-22T05:26:15;14.82;;;10.45;;
80229;SDS011;69540;42.136;24.742;2024-03-22T05:28:40;12.93;;;10.55;;
80229;SDS011;69540;42.136;24.742;2024-03-22T05:31:06;12.40;;;10.40;;
80229;SDS011;69540;42.136;24.742;2024-03-22T05:33:32;14.98;;;10.13;;
80229;SDS011;69540;42.136;24.742;2024-03-22T05:35:57;11.00;;;9.90;;
80229;SDS011;69540;42.136;24.742;2024-03-22T05:38:24;11.73;;;10.15;;
80229;SDS011;69540;42.136;24.742;2024-03-22T05:40:49;13.90;;;10.45;;
80229;SDS011;69540;42.136;24.742;2024-03-22T05:43:15;12.25;;;9.77;;
80229;SDS011;69540;42.136;24.742;2024-03-22T05:45:41;12.70;;;10.02;;
80229;SDS011;69540;42.136;24.742;2024-03-22T05:48:07;11.23;;;9.60;;
80229;SDS011;69540;42.136;24.742;2024-03-22T05:50:33;11.45;;;9.30;;
80229;SDS011;69540;42.136;24.742;2024-03-22T05:52:58;11.25;;;8.93;;
80229;SDS011;69540;42.136;24.742;2024-03-22T05:55:24;12.90;;;9.25;;
80229;SDS011;69540;42.136;24.742;2024-03-22T05:57:52;11.55;;;9.13;;
80229;SDS011;69540;42.136;24.742;2024-03-22T06:00:18;10.95;;;8.90;;
80229;SDS011;69540;42.136;24.742;2024-03-22T06:02:44;12.30;;;8.90;;
80229;SDS011;69540;42.136;24.742;2024-03-22T06:05:09;13.07;;;8.80;;
80229;SDS011;69540;42.136;24.742;2024-03-22T06:07:35;12.93;;;8.52;;
80229;SDS011;69540;42.136;24.742;2024-03-22T06:10:07;10.80;;;8.85;;
80229;SDS011;69540;42.136;24.742;2024-03-22T06:12:34;12.68;;;9.27;;
80229;SDS011;69540;42.136;24.742;2024-03-22T06:15:00;12.05;;;8.95;;
80229;SDS011;69540;42.136;24.742;2024-03-22T06:17:26;12.48;;;8.55;;
80229;SDS011;69540;42.136;24.742;2024-03-22T06:19:52;10.18;;;8.57;;
80229;SDS011;69540;42.136;24.742;2024-03-22T06:22:18;9.98;;;7.65;;
80229;SDS011;69540;42.136;24.742;2024-03-22T06:24:44;9.93;;;7.63;;
80229;SDS011;69540;42.136;24.742;2024-03-22T06:27:10;10.35;;;7.80;;
80229;SDS011;69540;42.136;24.742;2024-03-22T06:29:35;10.50;;;7.55;;
80229;SDS011;69540;42.136;24.742;2024-03-22T06:32:01;9.50;;;7.57;;
80229;SDS011;69540;42.136;24.742;2024-03-22T06:34:27;13.00;;;8.13;;
80229;SDS011;69540;42.136;24.742;2024-03-22T06:36:52;11.32;;;7.90;;
80229;SDS011;69540;42.136;24.742;2024-03-22T06:39:18;11.27;;;7.97;;
80229;SDS011;69540;42.136;24.742;2024-03-22T06:41:44;9.75;;;7.70;;
80229;SDS011;69540;42.136;24.742;2024-03-22T06:44:11;10.77;;;7.32;;
80229;SDS011;69540;42.136;24.742;2024-03-22T06:46:39;8.85;;;7.93;;
80229;SDS011;69540;42.136;24.742;2024-03-22T06:49:05;9.20;;;7.57;;
80229;SDS011;69540;42.136;24.742;2024-03-22T06:51:30;9.70;;;7.68;;
80229;SDS011;69540;42.136;24.742;2024-03-22T06:53:56;9.98;;;8.23;;
80229;SDS011;69540;42.136;24.742;2024-03-22T06:56:22;10.02;;;7.80;;
80229;SDS011;69540;42.136;24.742;2024-03-22T06:58:47;9.43;;;7.00;;
80229;SDS011;69540;42.136;24.742;2024-03-22T07:01:13;9.80;;;7.10;;
80229;SDS011;69540;42.136;24.742;2024-03-22T07:03:39;9.13;;;6.65;;
80229;SDS011;69540;42.136;24.742;2024-03-22T07:06:04;6.88;;;6.18;;
80229;SDS011;69540;42.136;24.742;2024-03-22T07:08:33;7.65;;;5.75;;
80229;SDS011;69540;42.136;24.742;2024-03-22T07:10:59;9.10;;;5.97;;
80229;SDS011;69540;42.136;24.742;2024-03-22T07:13:24;6.55;;;5.60;;
80229;SDS011;69540;42.136;24.742;2024-03-22T07:15:50;6.47;;;5.80;;
80229;SDS011;69540;42.136;24.742;2024-03-22T07:18:16;6.10;;;5.10;;
80229;SDS011;69540;42.136;24.742;2024-03-22T07:20:41;5.38;;;4.70;;
80229;SDS011;69540;42.136;24.742;2024-03-22T07:23:08;6.60;;;4.53;;
80229;SDS011;69540;42.136;24.742;2024-03-22T07:25:34;5.07;;;4.38;;
80229;SDS011;69540;42.136;24.742;2024-03-22T07:28:00;4.32;;;3.92;;
80229;SDS011;69540;42.136;24.742;2024-03-22T07:30:25;4.72;;;4.32;;
80229;SDS011;69540;42.136;24.742;2024-03-22T07:32:51;5.95;;;4.10;;
80229;SDS011;69540;42.136;24.742;2024-03-22T07:35:17;6.80;;;4.10;;
80229;SDS011;69540;42.136;24.742;2024-03-22T07:37:42;4.50;;;4.07;;
80229;SDS011;69540;42.136;24.742;2024-03-22T07:40:08;7.70;;;4.20;;
80229;SDS011;69540;42.136;24.742;2024-03-22T07:42:34;4.80;;;3.90;;
80229;SDS011;69540;42.136;24.742;2024-03-22T07:45:00;4.88;;;4.43;;
80229;SDS011;69540;42.136;24.742;2024-03-22T07:47:26;5.03;;;4.18;;
80229;SDS011;69540;42.136;24.742;2024-03-22T07:49:51;5.10;;;4.10;;
80229;SDS011;69540;42.136;24.742;2024-03-22T07:52:17;7.53;;;4.40;;
80229;SDS011;69540;42.136;24.742;2024-03-22T07:54:43;4.75;;;4.07;;
80229;SDS011;69540;42.136;24.742;2024-03-22T07:57:08;4.95;;;4.07;;
80229;SDS011;69540;42.136;24.742;2024-03-22T07:59:35;4.18;;;3.78;;
80229;SDS011;69540;42.136;24.742;2024-03-22T08:02:01;4.28;;;3.88;;
80229;SDS011;69540;42.136;24.742;2024-03-22T08:04:28;5.10;;;3.63;;
80229;SDS011;69540;42.136;24.742;2024-03-22T08:06:54;4.25;;;3.83;;
80229;SDS011;69540;42.136;24.742;2024-03-22T08:09:20;5.18;;;3.63;;
80229;SDS011;69540;42.136;24.742;2024-03-22T08:11:46;5.20;;;3.55;;
80229;SDS011;69540;42.136;24.742;2024-03-22T08:14:12;4.40;;;3.90;;
80229;SDS011;69540;42.136;24.742;2024-03-22T08:16:38;4.25;;;3.88;;
80229;SDS011;69540;42.136;24.742;2024-03-22T08:19:04;3.90;;;3.60;;
80229;SDS011;69540;42.136;24.742;2024-03-22T08:21:30;4.20;;;3.80;;
80229;SDS011;69540;42.136;24.742;2024-03-22T08:23:55;4.97;;;3.70;;
80229;SDS011;69540;42.136;24.742;2024-03-22T08:26:21;5.13;;;3.88;;
80229;SDS011;69540;42.136;24.742;2024-03-22T08:28:47;4.75;;;4.03;;
80229;SDS011;69540;42.136;24.742;2024-03-22T08:31:13;4.97;;;4.50;;
80229;SDS011;69540;42.136;24.742;2024-03-22T08:33:39;4.40;;;3.97;;
80229;SDS011;69540;42.136;24.742;2024-03-22T08:36:05;5.00;;;3.90;;
80229;SDS011;69540;42.136;24.742;2024-03-22T08:38:31;5.13;;;4.38;;
80229;SDS011;69540;42.136;24.742;2024-03-22T08:40:58;4.78;;;4.38;;
80229;SDS011;69540;42.136;24.742;2024-03-22T08:43:23;4.63;;;4.22;;
80229;SDS011;69540;42.136;24.742;2024-03-22T08:45:51;5.60;;;4.63;;
80229;SDS011;69540;42.136;24.742;2024-03-22T08:48:17;5.85;;;4.70;;
80229;SDS011;69540;42.136;24.742;2024-03-22T08:50:43;5.97;;;4.55;;
80229;SDS011;69540;42.136;24.742;2024-03-22T08:53:09;5.38;;;4.88;;
80229;SDS011;69540;42.136;24.742;2024-03-22T08:55:35;5.20;;;4.70;;
80229;SDS011;69540;42.136;24.742;2024-03-22T08:58:00;8.27;;;5.18;;
80229;SDS011;69540;42.136;24.742;2024-03-22T09:00:26;7.10;;;4.97;;
80229;SDS011;69540;42.136;24.742;2024-03-22T09:02:52;6.38;;;4.60;;
80229;SDS011;69540;42.136;24.742;2024-03-22T09:05:17;4.90;;;4.30;;
80229;SDS011;69540;42.136;24.742;2024-03-22T09:07:43;4.53;;;4.13;;
80229;SDS011;69540;42.136;24.742;2024-03-22T09:10:09;5.47;;;4.35;;
80229;SDS011;69540;42.136;24.742;2024-03-22T09:12:36;5.55;;;4.22;;
80229;SDS011;69540;42.136;24.742;2024-03-22T09:15:02;5.68;;;3.55;;
80229;SDS011;69540;42.136;24.742;2024-03-22T09:17:28;4.05;;;3.40;;
80229;SDS011;69540;42.136;24.742;2024-03-22T09:19:54;3.85;;;3.50;;
80229;SDS011;69540;42.136;24.742;2024-03-22T09:22:20;4.15;;;3.83;;
80229;SDS011;69540;42.136;24.742;2024-03-22T09:24:46;4.60;;;4.10;;
80229;SDS011;69540;42.136;24.742;2024-03-22T09:27:11;4.82;;;4.18;;
80229;SDS011;69540;42.136;24.742;2024-03-22T09:29:37;3.50;;;3.20;;
80229;SDS011;69540;42.136;24.742;2024-03-22T09:32:03;3.08;;;2.78;;
80229;SDS011;69540;42.136;24.742;2024-03-22T09:34:29;2.58;;;2.38;;
80229;SDS011;69540;42.136;24.742;2024-03-22T09:36:58;2.13;;;2.00;;
80229;SDS011;69540;42.136;24.742;2024-03-22T09:39:23;2.13;;;1.80;;
80229;SDS011;69540;42.136;24.742;2024-03-22T09:41:50;3.42;;;2.20;;
80229;SDS011;69540;42.136;24.742;2024-03-22T09:44:18;1.98;;;1.88;;
80229;SDS011;69540;42.136;24.742;2024-03-22T09:46:44;2.90;;;2.10;;
80229;SDS011;69540;42.136;24.742;2024-03-22T09:49:12;3.03;;;2.22;;
80229;SDS011;69540;42.136;24.742;2024-03-22T09:51:41;3.17;;;2.40;;
80229;SDS011;69540;42.136;24.742;2024-03-22T09:54:09;3.50;;;2.53;;
80229;SDS011;69540;42.136;24.742;2024-03-22T09:56:35;2.75;;;2.28;;
80229;SDS011;69540;42.136;24.742;2024-03-22T09:59:04;2.33;;;2.22;;
80229;SDS011;69540;42.136;24.742;2024-03-22T10:01:30;2.63;;;2.35;;
80229;SDS011;69540;42.136;24.742;2024-03-22T10:03:57;4.75;;;2.50;;
80229;SDS011;69540;42.136;24.742;2024-03-22T10:06:22;3.75;;;2.60;;
80229;SDS011;69540;42.136;24.742;2024-03-22T10:08:48;2.85;;;2.60;;
80229;SDS011;69540;42.136;24.742;2024-03-22T10:11:14;2.88;;;2.67;;
80229;SDS011;69540;42.136;24.742;2024-03-22T10:13:39;4.03;;;2.63;;
80229;SDS011;69540;42.136;24.742;2024-03-22T10:16:05;3.85;;;3.10;;
80229;SDS011;69540;42.136;24.742;2024-03-22T10:18:32;5.78;;;3.67;;
80229;SDS011;69540;42.136;24.742;2024-03-22T10:21:03;4.05;;;3.60;;
80229;SDS011;69540;42.136;24.742;2024-03-22T10:23:30;3.63;;;2.75;;
80229;SDS011;69540;42.136;24.742;2024-03-22T10:25:56;3.47;;;2.72;;
80229;SDS011;69540;42.136;24.742;2024-03-22T10:28:23;2.80;;;2.40;;
80229;SDS011;69540;42.136;24.742;2024-03-22T10:30:50;3.70;;;2.40;;
80229;SDS011;69540;42.136;24.742;2024-03-22T10:33:20;3.08;;;2.22;;
80229;SDS011;69540;42.136;24.742;2024-03-22T10:35:51;5.20;;;2.42;;
80229;SDS011;69540;42.136;24.742;2024-03-22T10:38:19;2.13;;;1.98;;
80229;SDS011;69540;42.136;24.742;2024-03-22T10:40:45;3.88;;;2.30;;
80229;SDS011;69540;42.136;24.742;2024-03-22T10:43:12;2.85;;;2.58;;
80229;SDS011;69540;42.136;24.742;2024-03-22T10:45:38;2.78;;;2.38;;
80229;SDS011;69540;42.136;24.742;2024-03-22T10:48:09;2.45;;;2.30;;
80229;SDS011;69540;42.136;24.742;2024-03-22T10:50:38;2.80;;;2.33;;
80229;SDS011;69540;42.136;24.742;2024-03-22T10:53:06;2.85;;;2.05;;
80229;SDS011;69540;42.136;24.742;2024-03-22T10:55:39;2.05;;;1.95;;
80229;SDS011;69540;42.136;24.742;2024-03-22T10:58:14;2.40;;;2.20;;
80229;SDS011;69540;42.136;24.742;2024-03-22T11:00:41;3.33;;;2.30;;
80229;SDS011;69540;42.136;24.742;2024-03-22T11:03:12;3.03;;;2.30;;
80229;SDS011;69540;42.136;24.742;2024-03-22T11:05:47;2.10;;;2.00;;
80229;SDS011;69540;42.136;24.742;2024-03-22T11:08:24;1.85;;;1.75;;
80229;SDS011;69540;42.136;24.742;2024-03-22T11:10:50;2.15;;;2.05;;
80229;SDS011;69540;42.136;24.742;2024-03-22T11:13:16;1.83;;;1.67;;
80229;SDS011;69540;42.136;24.742;2024-03-22T11:15:42;3.50;;;2.00;;
80229;SDS011;69540;42.136;24.742;2024-03-22T11:18:08;2.63;;;2.42;;
80229;SDS011;69540;42.136;24.742;2024-03-22T11:20:37;2.67;;;2.30;;
80229;SDS011;69540;42.136;24.742;2024-03-22T11:23:06;2.00;;;1.90;;
80229;SDS011;69540;42.136;24.742;2024-03-22T11:25:32;1.90;;;1.77;;
80229;SDS011;69540;42.136;24.742;2024-03-22T11:27:59;2.05;;;1.95;;
80229;SDS011;69540;42.136;24.742;2024-03-22T11:30:31;1.98;;;1.85;;
80229;SDS011;69540;42.136;24.742;2024-03-22T11:33:00;2.08;;;1.95;;
80229;SDS011;69540;42.136;24.742;2024-03-22T11:35:26;2.53;;;1.95;;
80229;SDS011;69540;42.136;24.742;2024-03-22T11:37:52;1.98;;;1.77;;
80229;SDS011;69540;42.136;24.742;2024-03-22T11:40:18;2.78;;;2.10;;
80229;SDS011;69540;42.136;24.742;2024-03-22T11:42:46;2.33;;;1.90;;
80229;SDS011;69540;42.136;24.742;2024-03-22T11:45:15;2.15;;;1.92;;
80229;SDS011;69540;42.136;24.742;2024-03-22T11:47:43;2.05;;;1.77;;
80229;SDS011;69540;42.136;24.742;2024-03-22T11:50:12;1.67;;;1.58;;
80229;SDS011;69540;42.136;24.742;2024-03-22T11:52:42;2.28;;;1.90;;
80229;SDS011;69540;42.136;24.742;2024-03-22T11:55:11;2.25;;;1.98;;
80229;SDS011;69540;42.136;24.742;2024-03-22T11:57:37;2.78;;;2.58;;
80229;SDS011;69540;42.136;24.742;2024-03-22T12:00:03;3.30;;;2.38;;
80229;SDS011;69540;42.136;24.742;2024-03-22T12:02:37;2.60;;;2.40;;
80229;SDS011;69540;42.136;24.742;2024-03-22T12:05:03;3.45;;;2.70;;
80229;SDS011;69540;42.136;24.742;2024-03-22T12:07:30;2.20;;;2.10;;
80229;SDS011;69540;42.136;24.742;2024-03-22T12:09:55;2.80;;;2.60;;
80229;SDS011;69540;42.136;24.742;2024-03-22T12:12:21;2.90;;;2.67;;
80229;SDS011;69540;42.136;24.742;2024-03-22T12:14:48;2.42;;;2.22;;
80229;SDS011;69540;42.136;24.742;2024-03-22T12:17:16;4.05;;;2.25;;
80229;SDS011;69540;42.136;24.742;2024-03-22T12:19:42;2.20;;;2.00;;
80229;SDS011;69540;42.136;24.742;2024-03-22T12:22:08;2.45;;;1.98;;
80229;SDS011;69540;42.136;24.742;2024-03-22T12:24:34;2.10;;;2.00;;
80229;SDS011;69540;42.136;24.742;2024-03-22T12:26:59;2.50;;;2.20;;
80229;SDS011;69540;42.136;24.742;2024-03-22T12:29:25;2.92;;;2.72;;
80229;SDS011;69540;42.136;24.742;2024-03-22T12:31:51;3.25;;;2.38;;
80229;SDS011;69540;42.136;24.742;2024-03-22T12:34:17;2.40;;;2.20;;
80229;SDS011;69540;42.136;24.742;2024-03-22T12:36:43;4.35;;;3.20;;
80229;SDS011;69540;42.136;24.742;2024-03-22T12:39:08;3.90;;;2.40;;
80229;SDS011;69540;42.136;24.742;2024-03-22T12:41:34;2.47;;;2.00;;
80229;SDS011;69540;42.136;24.742;2024-03-22T12:44:00;3.38;;;2.22;;
80229;SDS011;69540;42.136;24.742;2024-03-22T12:46:26;3.38;;;2.10;;
80229;SDS011;69540;42.136;24.742;2024-03-22T12:48:52;3.05;;;2.50;;
80229;SDS011;69540;42.136;24.742;2024-03-22T12:51:19;4.72;;;2.50;;
80229;SDS011;69540;42.136;24.742;2024-03-22T12:53:45;2.38;;;2.15;;
80229;SDS011;69540;42.136;24.742;2024-03-22T12:56:11;2.60;;;2.20;;
80229;SDS011;69540;42.136;24.742;2024-03-22T12:58:37;2.00;;;1.90;;
80229;SDS011;69540;42.136;24.742;2024-03-22T13:01:04;1.95;;;1.85;;
80229;SDS011;69540;42.136;24.742;2024-03-22T13:03:30;2.28;;;1.90;;
80229;SDS011;69540;42.136;24.742;2024-03-22T13:05:59;2.47;;;2.20;;
80229;SDS011;69540;42.136;24.742;2024-03-22T13:08:25;2.85;;;2.08;;
80229;SDS011;69540;42.136;24.742;2024-03-22T13:10:51;2.10;;;1.90;;
80229;SDS011;69540;42.136;24.742;2024-03-22T13:13:17;1.92;;;1.80;;
80229;SDS011;69540;42.136;24.742;2024-03-22T13:15:43;2.30;;;2.17;;
80229;SDS011;69540;42.136;24.742;2024-03-22T13:18:09;2.20;;;2.00;;
80229;SDS011;69540;42.136;24.742;2024-03-22T13:20:35;2.67;;;2.47;;
80229;SDS011;69540;42.136;24.742;2024-03-22T13:23:01;2.60;;;2.03;;
80229;SDS011;69540;42.136;24.742;2024-03-22T13:25:27;2.67;;;2.40;;
80229;SDS011;69540;42.136;24.742;2024-03-22T13:27:53;2.22;;;2.03;;
80229;SDS011;69540;42.136;24.742;2024-03-22T13:30:19;2.15;;;1.95;;
80229;SDS011;69540;42.136;24.742;2024-03-22T13:32:44;3.20;;;2.40;;
80229;SDS011;69540;42.136;24.742;2024-03-22T13:35:10;2.45;;;2.25;;
80229;SDS011;69540;42.136;24.742;2024-03-22T13:37:36;2.30;;;2.10;;
80229;SDS011;69540;42.136;24.742;2024-03-22T13:40:02;2.00;;;1.90;;
80229;SDS011;69540;42.136;24.742;2024-03-22T13:42:28;2.17;;;1.85;;
80229;SDS011;69540;42.136;24.742;2024-03-22T13:44:53;2.58;;;2.38;;
80229;SDS011;69540;42.136;24.742;2024-03-22T13:47:21;2.67;;;2.20;;
80229;SDS011;69540;42.136;24.742;2024-03-22T13:49:48;1.98;;;1.88;;
80229;SDS011;69540;42.136;24.742;2024-03-22T13:52:13;2.40;;;2.20;;
80229;SDS011;69540;42.136;24.742;2024-03-22T13:54:39;2.50;;;2.30;;
80229;SDS011;69540;42.136;24.742;2024-03-22T13:57:05;2.13;;;2.00;;
80229;SDS011;69540;42.136;24.742;2024-03-22T13:59:31;2.05;;;1.95;;
80229;SDS011;69540;42.136;24.742;2024-03-22T14:01:57;2.30;;;2.10;;
80229;SDS011;69540;42.136;24.742;2024-03-22T14:04:23;2.88;;;2.30;;
80229;SDS011;69540;42.136;24.742;2024-03-22T14:06:51;2.28;;;2.08;;
80229;SDS011;69540;42.136;24.742;2024-03-22T14:09:17;2.40;;;2.20;;
80229;SDS011;69540;42.136;24.742;2024-03-22T14:11:42;3.10;;;2.20;;
80229;SDS011;69540;42.136;24.742;2024-03-22T14:14:11;3.40;;;2.40;;
80229;SDS011;69540;42.136;24.742;2024-03-22T14:16:40;3.40;;;2.30;;
80229;SDS011;69540;42.136;24.742;2024-03-22T14:19:09;2.47;;;2.20;;
80229;SDS011;69540;42.136;24.742;2024-03-22T14:21:35;2.42;;;2.22;;
80229;SDS011;69540;42.136;24.742;2024-03-22T14:24:03;2.33;;;2.15;;